createdAt,value
2023-02-03T00:00:34.440Z,98905.27
2023-02-03T00:03:02.650Z,98908.37
2023-02-03T00:05:31.226Z,98909.10
2023-02-03T00:07:59.371Z,98910.48
2023-02-03T00:10:27.782Z,98910.67
2023-02-03T00:12:57.779Z,98910.32
2023-02-03T00:15:26.963Z,98911.01
2023-02-03T00:17:55.267Z,98914.64
2023-02-03T00:20:23.679Z,98912.26
2023-02-03T00:22:52.925Z,98913.88
2023-02-03T00:25:21.668Z,98914.78
2023-02-03T00:27:50.180Z,98916.08
2023-02-03T00:30:18.431Z,98914.55
2023-02-03T00:32:46.936Z,98917.49
2023-02-03T00:35:15.050Z,98916.45
2023-02-03T00:37:43.146Z,98918.04
2023-02-03T00:40:12.272Z,98921.83
2023-02-03T00:42:40.422Z,98926.11
2023-02-03T00:45:09.188Z,98926.25
2023-02-03T00:47:37.882Z,98930.05
2023-02-03T00:50:07.348Z,98929.89
2023-02-03T00:52:37.176Z,98930.56
2023-02-03T00:55:06.274Z,98930.20
2023-02-03T00:57:35.754Z,98930.36
2023-02-03T01:00:04.682Z,98930.36
2023-02-03T01:02:33.513Z,98932.93
2023-02-03T01:05:01.850Z,98929.48
2023-02-03T01:07:33.379Z,98933.63
2023-02-03T01:10:02.055Z,98933.16
2023-02-03T01:12:34.680Z,98933.36
2023-02-03T01:15:03.085Z,98931.63
2023-02-03T01:17:31.490Z,98933.15
2023-02-03T01:19:59.662Z,98931.56
2023-02-03T01:22:30.730Z,98931.02
2023-02-03T01:24:58.799Z,98930.16
2023-02-03T01:27:27.443Z,98927.61
2023-02-03T01:29:57.115Z,98926.74
2023-02-03T01:32:25.472Z,98925.84
2023-02-03T01:34:53.860Z,98929.08
2023-02-03T01:37:22.975Z,98925.08
2023-02-03T01:39:51.239Z,98930.20
2023-02-03T01:42:19.706Z,98928.47
2023-02-03T01:44:51.351Z,98932.75
2023-02-03T01:47:37.061Z,98932.86
2023-02-03T01:50:17.772Z,98932.39
2023-02-03T01:52:47.915Z,98926.50
2023-02-03T01:55:19.073Z,98924.75
2023-02-03T01:57:57.373Z,98928.69
2023-02-03T02:00:31.019Z,98924.03
2023-02-03T02:02:59.433Z,98924.20
2023-02-03T02:05:34.487Z,98923.00
2023-02-03T02:08:03.436Z,98922.11
2023-02-03T02:10:31.721Z,98922.82
2023-02-03T02:13:01.800Z,98925.75
2023-02-03T02:15:58.095Z,98925.95
2023-02-03T02:18:48.011Z,98922.16
2023-02-03T02:21:48.940Z,98920.65
2023-02-03T02:24:38.429Z,98924.48
2023-02-03T02:27:14.595Z,98924.17
2023-02-03T02:30:19.843Z,98926.23
2023-02-03T02:32:48.149Z,98926.46
2023-02-03T02:35:41.216Z,98927.89
2023-02-03T02:38:27.643Z,98933.91
2023-02-03T02:41:12.167Z,98931.48
2023-02-03T02:43:42.504Z,98933.91
2023-02-03T02:46:35.646Z,98935.98
2023-02-03T02:49:07.754Z,98930.77
2023-02-03T02:51:35.834Z,98930.05
2023-02-03T02:54:06.377Z,98927.81
2023-02-03T02:56:34.856Z,98926.30
2023-02-03T02:59:04.892Z,98931.03
2023-02-03T03:01:33.283Z,98933.98
2023-02-03T03:04:03.996Z,98929.17
2023-02-03T03:06:55.371Z,98927.26
2023-02-03T03:09:44.558Z,98921.18
2023-02-03T03:12:15.893Z,98917.52
2023-02-03T03:14:46.784Z,98919.94
2023-02-03T03:17:18.530Z,98921.65
2023-02-03T03:19:50.803Z,98919.73
2023-02-03T03:22:21.016Z,98923.37
2023-02-03T03:24:52.997Z,98927.17
2023-02-03T03:27:23.633Z,98926.11
2023-02-03T03:29:55.130Z,98924.21
2023-02-03T03:32:23.500Z,98924.05
2023-02-03T03:34:51.738Z,98926.84
2023-02-03T03:37:22.500Z,98931.31
2023-02-03T03:39:52.552Z,98929.21
2023-02-03T03:42:34.762Z,98927.98
2023-02-03T03:45:14.892Z,98923.66
2023-02-03T03:47:50.553Z,98927.77
2023-02-03T03:50:19.584Z,98929.98
2023-02-03T03:52:47.908Z,98929.09
2023-02-03T03:55:16.722Z,98926.30
2023-02-03T03:58:03.867Z,98931.66
2023-02-03T04:00:33.294Z,98936.83
2023-02-03T04:03:05.560Z,98937.48
2023-02-03T04:05:34.004Z,98939.77
2023-02-03T04:08:03.868Z,98938.73
2023-02-03T04:10:36.970Z,98943.70
2023-02-03T04:13:05.961Z,98948.19
2023-02-03T04:15:35.020Z,98946.12
2023-02-03T04:18:03.315Z,98942.36
2023-02-03T04:20:31.881Z,98940.44
2023-02-03T04:23:00.679Z,98940.02
2023-02-03T04:25:29.131Z,98934.71
2023-02-03T04:27:57.705Z,98931.41
2023-02-03T04:30:31.951Z,98931.84
2023-02-03T04:35:56.286Z,98924.99
2023-02-03T04:38:30.885Z,98924.94
2023-02-03T04:41:03.671Z,98930.41
2023-02-03T04:43:43.057Z,98929.84
2023-02-03T04:46:14.006Z,98929.65
2023-02-03T04:48:49.514Z,98933.45
2023-02-03T04:51:32.969Z,98940.36
2023-02-03T04:54:05.221Z,98952.73
2023-02-03T04:59:29.386Z,98956.35
2023-02-03T05:04:58.099Z,98957.91
2023-02-03T05:07:26.151Z,98957.33
2023-02-03T05:09:54.320Z,98960.23
2023-02-03T05:12:22.381Z,98962.27
2023-02-03T05:14:50.539Z,98963.48
2023-02-03T05:17:18.779Z,98962.80
2023-02-03T05:19:46.821Z,98969.02
2023-02-03T05:22:15.068Z,98970.92
2023-02-03T05:24:43.502Z,98974.20
2023-02-03T05:27:11.574Z,98981.78
2023-02-03T05:29:39.630Z,98985.05
2023-02-03T05:32:07.767Z,98991.06
2023-02-03T05:34:36.939Z,98993.63
2023-02-03T05:37:05.191Z,98995.16
2023-02-03T05:39:34.490Z,98998.74
2023-02-03T05:42:03.517Z,99000.77
2023-02-03T05:44:32.568Z,99002.83
2023-02-03T05:47:00.787Z,99004.53
2023-02-03T05:49:30.749Z,99003.50
2023-02-03T05:52:01.651Z,99008.15
2023-02-03T05:54:30.406Z,99013.67
2023-02-03T05:56:58.613Z,99011.94
2023-02-03T05:59:26.736Z,99013.64
2023-02-03T06:01:55.006Z,99012.92
2023-02-03T06:04:23.390Z,99013.25
2023-02-03T06:06:51.571Z,99015.46
2023-02-03T06:09:19.910Z,99018.20
2023-02-03T06:11:49.483Z,99015.42
2023-02-03T06:14:17.781Z,99016.78
2023-02-03T06:16:46.278Z,99021.92
2023-02-03T06:19:16.305Z,99019.30
2023-02-03T06:21:45.091Z,99024.25
2023-02-03T06:24:18.407Z,99028.00
2023-02-03T06:26:53.962Z,99027.95
2023-02-03T06:29:25.101Z,99034.30
2023-02-03T06:31:56.540Z,99034.61
2023-02-03T06:34:33.382Z,99038.71
2023-02-03T06:37:10.595Z,99038.86
2023-02-03T06:39:43.385Z,99042.30
2023-02-03T06:45:00.161Z,99048.80
2023-02-03T06:47:37.020Z,99055.19
2023-02-03T06:50:15.568Z,99058.98
2023-02-03T06:55:37.405Z,99057.58
2023-02-03T06:58:21.663Z,99059.46
2023-02-03T07:01:04.292Z,99059.81
2023-02-03T07:03:42.239Z,99065.66
2023-02-03T07:06:16.190Z,99059.95
2023-02-03T07:08:52.098Z,99066.66
2023-02-03T07:11:24.212Z,99066.65
2023-02-03T07:14:06.240Z,99067.17
2023-02-03T07:16:46.161Z,99068.39
2023-02-03T07:19:21.304Z,99067.02
2023-02-03T07:21:57.371Z,99068.97
2023-02-03T07:24:28.165Z,99075.70
2023-02-03T07:27:04.693Z,99077.93
2023-02-03T07:29:41.340Z,99078.13
2023-02-03T07:32:16.361Z,99084.36
2023-02-03T07:34:58.637Z,99086.64
2023-02-03T07:40:14.264Z,99092.41
2023-02-03T07:43:06.090Z,99091.38
2023-02-03T07:45:36.779Z,99088.63
2023-02-03T07:48:15.587Z,99094.51
2023-02-03T07:50:50.927Z,99094.21
2023-02-03T07:53:32.943Z,99098.37
2023-02-03T07:56:03.173Z,99098.23
2023-02-03T07:58:43.957Z,99102.55
2023-02-03T08:01:33.164Z,99103.91
2023-02-03T08:04:08.108Z,99103.37
2023-02-03T08:06:45.813Z,99100.44
2023-02-03T08:09:15.253Z,99104.75
2023-02-03T08:11:45.553Z,99105.61
2023-02-03T08:14:13.888Z,99109.59
2023-02-03T08:16:50.519Z,99113.55
2023-02-03T08:22:16.804Z,99115.44
2023-02-03T08:24:48.579Z,99117.13
2023-02-03T08:27:23.395Z,99119.73
2023-02-03T08:29:54.091Z,99122.50
2023-02-03T08:32:28.578Z,99127.55
2023-02-03T08:35:02.032Z,99128.42
2023-02-03T08:37:35.643Z,99130.02
2023-02-03T08:40:09.285Z,99134.04
2023-02-03T08:42:42.746Z,99133.89
2023-02-03T08:45:10.995Z,99136.10
2023-02-03T08:47:40.206Z,99138.19
2023-02-03T08:50:09.448Z,99140.80
2023-02-03T08:52:37.575Z,99138.05
2023-02-03T08:55:06.706Z,99141.34
2023-02-03T08:57:36.516Z,99140.70
2023-02-03T09:00:05.404Z,99141.27
2023-02-03T09:02:33.693Z,99140.06
2023-02-03T09:05:02.036Z,99140.90
2023-02-03T09:07:31.960Z,99142.41
2023-02-03T09:10:00.730Z,99137.54
2023-02-03T09:12:31.580Z,99136.64
2023-02-03T09:15:02.544Z,99137.11
2023-02-03T09:17:31.546Z,99135.33
2023-02-03T09:19:59.855Z,99135.98
2023-02-03T09:22:28.829Z,99139.06
2023-02-03T09:24:57.420Z,99140.77
2023-02-03T09:27:25.707Z,99137.64
2023-02-03T09:29:54.264Z,99135.69
2023-02-03T09:32:22.695Z,99135.66
2023-02-03T09:34:50.862Z,99135.81
2023-02-03T09:37:19.320Z,99139.55
2023-02-03T09:39:48.974Z,99138.96
2023-02-03T09:42:25.806Z,99133.71
2023-02-03T09:45:18.211Z,99132.80
2023-02-03T09:47:54.181Z,99130.89
2023-02-03T09:50:25.440Z,99130.02
2023-02-03T09:52:53.925Z,99130.34
2023-02-03T09:55:26.200Z,99131.19
2023-02-03T09:58:07.060Z,99128.75
2023-02-03T10:00:37.571Z,99130.77
2023-02-03T10:03:28.470Z,99131.92
2023-02-03T10:05:56.954Z,99128.96
2023-02-03T10:08:48.681Z,99127.41
2023-02-03T10:11:36.509Z,99130.38
2023-02-03T10:14:40.030Z,99129.00
2023-02-03T10:17:17.480Z,99132.79
2023-02-03T10:19:50.629Z,99126.70
2023-02-03T10:22:21.416Z,99121.64
2023-02-03T10:25:00.227Z,99121.24
2023-02-03T10:27:28.352Z,99119.65
2023-02-03T10:30:04.708Z,99117.56
2023-02-03T10:32:34.112Z,99116.35
2023-02-03T10:35:03.214Z,99116.80
2023-02-03T10:37:44.056Z,99116.75
2023-02-03T10:40:14.330Z,99118.05
2023-02-03T10:43:02.337Z,99113.33
2023-02-03T10:45:31.834Z,99115.34
2023-02-03T10:48:00.191Z,99115.98
2023-02-03T10:50:32.091Z,99115.77
2023-02-03T10:53:35.620Z,99113.91
2023-02-03T10:56:05.237Z,99107.77
2023-02-03T10:58:34.268Z,99107.80
2023-02-03T11:01:15.697Z,99104.70
2023-02-03T11:04:02.101Z,99104.83
2023-02-03T11:06:31.534Z,99100.98
2023-02-03T11:09:00.114Z,99099.17
2023-02-03T11:11:34.551Z,99095.77
2023-02-03T11:14:02.834Z,99097.11
2023-02-03T11:16:34.309Z,99092.78
2023-02-03T11:19:04.974Z,99093.27
2023-02-03T11:21:44.337Z,99092.02
2023-02-03T11:24:39.703Z,99096.11
2023-02-03T11:27:11.224Z,99098.27
2023-02-03T11:30:09.050Z,99099.95
2023-02-03T11:32:38.295Z,99097.64
2023-02-03T11:35:27.667Z,99096.88
2023-02-03T11:37:57.154Z,99094.27
2023-02-03T11:40:34.233Z,99086.16
2023-02-03T11:43:02.576Z,99089.09
2023-02-03T11:45:55.262Z,99085.31
2023-02-03T11:48:35.391Z,99086.27
2023-02-03T11:51:15.690Z,99087.17
2023-02-03T11:54:02.497Z,99083.98
2023-02-03T11:56:43.159Z,99085.65
2023-02-03T11:59:24.510Z,99084.20
2023-02-03T12:02:01.819Z,99083.29
2023-02-03T12:04:55.043Z,99080.98
2023-02-03T12:07:35.372Z,99077.79
2023-02-03T12:10:27.580Z,99080.70
2023-02-03T12:13:25.239Z,99081.45
2023-02-03T12:16:14.278Z,99079.75
2023-02-03T12:19:21.243Z,99079.05
2023-02-03T12:21:55.781Z,99078.69
2023-02-03T12:24:25.096Z,99079.36
2023-02-03T12:27:36.546Z,99079.73
2023-02-03T12:30:28.392Z,99082.00
2023-02-03T12:32:59.625Z,99083.80
2023-02-03T12:35:59.792Z,99083.83
2023-02-03T12:38:49.249Z,99086.62
2023-02-03T12:41:21.172Z,99090.15
2023-02-03T12:43:52.809Z,99093.48
2023-02-03T12:47:07.617Z,99091.58
2023-02-03T12:49:46.337Z,99090.69
2023-02-03T12:52:20.564Z,99088.48
2023-02-03T12:55:17.723Z,99085.60
2023-02-03T12:57:55.675Z,99093.21
2023-02-03T13:00:35.263Z,99089.94
2023-02-03T13:03:20.889Z,99092.73
2023-02-03T13:06:02.655Z,99097.23
2023-02-03T13:08:55.912Z,99093.98
2023-02-03T13:11:48.004Z,99096.02
2023-02-03T13:14:33.418Z,99094.77
2023-02-03T13:17:25.388Z,99092.31
2023-02-03T13:19:57.588Z,99090.02
2023-02-03T13:22:25.901Z,99086.21
2023-02-03T13:25:01.752Z,99087.34
2023-02-03T13:27:45.113Z,99088.10
2023-02-03T13:30:35.253Z,99086.14
2023-02-03T13:33:03.461Z,99083.48
2023-02-03T13:35:57.978Z,99088.38
2023-02-03T13:38:44.708Z,99092.61
2023-02-03T13:41:37.200Z,99094.60
2023-02-03T13:44:05.296Z,99094.66
2023-02-03T13:46:35.155Z,99096.10
2023-02-03T13:49:04.303Z,99098.91
2023-02-03T13:51:34.971Z,99100.54
2023-02-03T13:54:08.400Z,99103.34
2023-02-03T13:56:39.550Z,99104.05
2023-02-03T13:59:13.891Z,99103.72
2023-02-03T14:01:42.735Z,99104.27
2023-02-03T14:04:26.457Z,99105.68
2023-02-03T14:06:59.205Z,99103.14
2023-02-03T14:09:30.368Z,99101.77
2023-02-03T14:12:21.712Z,99100.41
2023-02-03T14:14:52.837Z,99100.23
2023-02-03T14:17:36.343Z,99100.77
2023-02-03T14:20:25.508Z,99100.09
2023-02-03T14:22:55.084Z,99098.17
2023-02-03T14:25:23.392Z,99098.70
2023-02-03T14:28:02.045Z,99098.54
2023-02-03T14:30:30.582Z,99098.18
2023-02-03T14:33:00.151Z,99095.77
2023-02-03T14:35:41.161Z,99093.73
2023-02-03T14:38:14.057Z,99095.45
2023-02-03T14:40:42.593Z,99090.83
2023-02-03T14:43:38.063Z,99088.92
2023-02-03T14:46:41.817Z,99091.88
2023-02-03T14:49:18.901Z,99091.55
2023-02-03T14:51:51.574Z,99089.50
2023-02-03T14:54:28.893Z,99086.25
2023-02-03T14:57:49.747Z,99090.27
2023-02-03T15:00:20.795Z,99091.73
2023-02-03T15:03:09.412Z,99092.62
2023-02-03T15:05:45.814Z,99094.21
2023-02-03T15:08:36.344Z,99095.28
2023-02-03T15:11:16.988Z,99100.09
2023-02-03T15:13:45.181Z,99098.04
2023-02-03T15:16:16.104Z,99095.64
2023-02-03T15:18:44.637Z,99100.15
2023-02-03T15:21:17.804Z,99100.02
2023-02-03T15:23:49.738Z,99099.52
2023-02-03T15:26:24.401Z,99102.98
2023-02-03T15:29:03.345Z,99104.89
2023-02-03T15:31:37.928Z,99104.02
2023-02-03T15:34:36.841Z,99107.27
2023-02-03T15:37:27.939Z,99107.98
2023-02-03T15:40:13.725Z,99112.15
2023-02-03T15:42:56.556Z,99109.08
2023-02-03T15:45:24.724Z,99108.21
2023-02-03T15:47:58.425Z,99107.02
2023-02-03T15:50:32.476Z,99112.01
2023-02-03T15:53:26.218Z,99113.73
2023-02-03T15:55:57.091Z,99119.60
2023-02-03T15:58:29.500Z,99118.40
2023-02-03T16:01:03.405Z,99118.95
2023-02-03T16:03:41.392Z,99123.43
2023-02-03T16:06:25.312Z,99118.12
2023-02-03T16:08:54.464Z,99116.58
2023-02-03T16:11:38.472Z,99114.52
2023-02-03T16:14:11.727Z,99118.14
2023-02-03T16:17:05.473Z,99115.22
2023-02-03T16:22:36.495Z,99113.30
2023-02-03T16:25:25.994Z,99111.77
2023-02-03T16:28:35.243Z,99110.38
2023-02-03T16:31:32.671Z,99112.79
2023-02-03T16:34:40.348Z,99114.67
2023-02-03T16:37:32.903Z,99116.92
2023-02-03T16:40:19.876Z,99112.63
2023-02-03T16:43:08.118Z,99110.25
2023-02-03T16:45:54.804Z,99109.75
2023-02-03T16:48:44.048Z,99105.97
2023-02-03T16:51:16.027Z,99108.40
2023-02-03T16:53:45.304Z,99109.08
2023-02-03T16:56:14.033Z,99109.96
2023-02-03T16:58:42.566Z,99109.10
2023-02-03T17:01:11.923Z,99110.14
2023-02-03T17:03:40.291Z,99110.48
2023-02-03T17:06:12.835Z,99107.21
2023-02-03T17:08:41.451Z,99108.60
2023-02-03T17:11:17.270Z,99107.39
2023-02-03T17:13:46.301Z,99106.20
2023-02-03T17:16:19.083Z,99102.94
2023-02-03T17:18:47.747Z,99104.83
2023-02-03T17:21:18.994Z,99101.58
2023-02-03T17:23:50.784Z,99099.33
2023-02-03T17:26:19.536Z,99102.96
2023-02-03T17:28:50.404Z,99101.76
2023-02-03T17:31:22.502Z,99102.11
2023-02-03T17:33:52.654Z,99100.39
2023-02-03T17:36:22.012Z,99102.44
2023-02-03T17:55:32.809Z,99111.25
2023-02-03T17:58:04.249Z,99108.50
2023-02-03T18:00:33.044Z,99109.68
2023-02-03T18:03:02.924Z,99110.89
2023-02-03T18:05:35.588Z,99110.55
2023-02-03T18:08:09.268Z,99110.90
2023-02-03T18:10:44.736Z,99111.75
2023-02-03T18:13:13.480Z,99106.59
2023-02-03T18:15:42.090Z,99107.29
2023-02-03T18:18:10.394Z,99103.88
2023-02-03T18:20:38.664Z,99106.45
2023-02-03T18:23:06.982Z,99107.30
2023-02-03T18:25:36.262Z,99104.90
2023-02-03T18:28:04.862Z,99104.19
2023-02-03T18:30:33.699Z,99100.59
2023-02-03T18:33:05.466Z,99098.16
2023-02-03T18:35:34.579Z,99098.86
2023-02-03T18:38:03.262Z,99096.27
2023-02-03T18:40:32.115Z,99094.38
2023-02-03T18:43:02.415Z,99094.54
2023-02-03T18:45:31.384Z,99086.09
2023-02-03T18:47:59.962Z,99088.84
2023-02-03T18:50:28.688Z,99087.98
2023-02-03T18:52:57.244Z,99085.58
2023-02-03T18:55:25.568Z,99084.20
2023-02-03T18:57:53.899Z,99085.40
2023-02-03T19:00:22.225Z,99082.67
2023-02-03T19:02:50.482Z,99088.69
2023-02-03T19:05:19.586Z,99090.76
2023-02-03T19:07:48.418Z,99090.92
2023-02-03T19:10:25.549Z,99088.67
2023-02-03T19:12:59.599Z,99087.14
2023-02-03T19:15:27.703Z,99080.60
2023-02-03T19:17:56.230Z,99081.46
2023-02-03T19:25:52.677Z,99080.59
2023-02-03T19:28:30.415Z,99076.45
2023-02-03T19:31:08.277Z,99075.94
2023-02-03T19:33:37.403Z,99074.22
2023-02-03T19:36:06.152Z,99075.59
2023-02-03T19:38:35.441Z,99074.38
2023-02-03T19:41:04.039Z,99077.83
2023-02-03T19:43:32.611Z,99079.04
2023-02-03T19:46:00.832Z,99080.76
2023-02-03T19:48:29.578Z,99080.23
2023-02-03T19:50:57.868Z,99078.52
2023-02-03T19:53:26.120Z,99079.75
2023-02-03T19:55:54.536Z,99079.23
2023-02-03T19:58:26.308Z,99079.41
2023-02-03T20:00:54.497Z,99078.73
2023-02-03T20:03:23.757Z,99079.43
2023-02-03T20:05:54.846Z,99074.09
2023-02-03T20:08:43.071Z,99075.64
2023-02-03T20:11:13.099Z,99078.38
2023-02-03T20:13:43.572Z,99079.41
2023-02-03T20:16:11.806Z,99077.02
2023-02-03T20:18:41.251Z,99075.80
2023-02-03T20:21:09.890Z,99073.73
2023-02-03T20:23:40.491Z,99074.08
2023-02-03T20:26:08.772Z,99073.40
2023-02-03T20:28:38.837Z,99070.64
2023-02-03T20:31:08.100Z,99069.25
2023-02-03T20:33:36.382Z,99068.23
2023-02-03T20:36:05.253Z,99073.04
2023-02-03T20:38:33.292Z,99069.59
2023-02-03T20:41:01.647Z,99068.05
2023-02-03T20:43:31.294Z,99065.65
2023-02-03T20:45:59.430Z,99067.20
2023-02-03T20:48:27.663Z,99069.95
2023-02-03T20:50:56.116Z,99073.38
2023-02-03T20:53:25.597Z,99079.74
2023-02-03T20:55:57.222Z,99080.09
2023-02-03T20:58:26.819Z,99073.73
2023-02-03T21:00:57.756Z,99073.56
2023-02-03T21:03:45.407Z,99072.17
2023-02-03T21:06:20.372Z,99073.20
2023-02-03T21:08:48.774Z,99074.07
2023-02-03T21:11:18.914Z,99075.97
2023-02-03T21:13:48.970Z,99075.45
2023-02-03T21:16:19.600Z,99077.84
2023-02-03T21:19:02.940Z,99082.52
2023-02-03T21:21:38.291Z,99079.24
2023-02-03T21:24:26.151Z,99076.52
2023-02-03T21:26:54.769Z,99076.36
2023-02-03T21:29:27.417Z,99073.27
2023-02-03T21:31:56.443Z,99072.23
2023-02-03T21:34:32.159Z,99068.63
2023-02-03T21:37:20.489Z,99066.05
2023-02-03T21:39:48.824Z,99064.51
2023-02-03T21:42:42.309Z,99065.71
2023-02-03T21:45:22.614Z,99067.77
2023-02-03T21:47:52.695Z,99069.85
2023-02-03T21:50:28.158Z,99072.45
2023-02-03T21:53:18.268Z,99069.84
2023-02-03T21:55:48.708Z,99064.49
2023-02-03T21:58:29.265Z,99067.27
2023-02-03T22:00:58.940Z,99065.73
2023-02-03T22:03:35.864Z,99070.73
2023-02-03T22:06:19.447Z,99072.29
2023-02-03T22:08:49.218Z,99074.88
2023-02-03T22:11:21.284Z,99073.67
2023-02-03T22:13:52.669Z,99076.77
2023-02-03T22:16:21.686Z,99074.21
2023-02-03T22:18:50.287Z,99075.92
2023-02-03T22:21:18.968Z,99074.55
2023-02-03T22:23:47.652Z,99075.40
2023-02-03T22:26:16.845Z,99076.27
2023-02-03T22:28:45.518Z,99076.29
2023-02-03T22:31:14.258Z,99074.90
2023-02-03T22:33:42.906Z,99072.32
2023-02-03T22:36:11.763Z,99075.41
2023-02-03T22:38:40.562Z,99075.75
2023-02-03T22:41:12.092Z,99073.36
2023-02-03T22:43:40.765Z,99071.98
2023-02-03T22:46:09.323Z,99073.70
2023-02-03T22:48:38.148Z,99073.87
2023-02-03T22:51:06.858Z,99073.02
2023-02-03T22:53:35.471Z,99070.27
2023-02-03T22:56:04.418Z,99068.36
2023-02-03T22:58:32.870Z,99064.40
2023-02-03T23:01:01.434Z,99062.68
2023-02-03T23:03:32.826Z,99064.40
2023-02-03T23:06:01.903Z,99061.15
2023-02-03T23:08:30.609Z,99060.46
2023-02-03T23:10:59.134Z,99064.23
2023-02-03T23:13:28.472Z,99064.08
2023-02-03T23:15:57.038Z,99067.34
2023-02-03T23:18:25.853Z,99066.98
2023-02-03T23:20:54.640Z,99062.17
2023-02-03T23:23:23.250Z,99060.10
2023-02-03T23:25:51.672Z,99056.83
2023-02-03T23:28:20.599Z,99056.16
2023-02-03T23:30:49.203Z,99048.64
2023-02-03T23:33:18.113Z,99049.02
2023-02-03T23:35:46.689Z,99048.54
2023-02-03T23:38:15.821Z,99050.65
2023-02-03T23:40:44.303Z,99050.15
2023-02-03T23:43:12.803Z,99051.55
2023-02-03T23:45:41.245Z,99056.20
2023-02-03T23:48:10.129Z,99057.77
2023-02-03T23:50:38.906Z,99057.24
2023-02-03T23:53:07.451Z,99054.51
2023-02-03T23:55:38.051Z,99055.02
2023-02-03T23:58:06.681Z,99057.42
